createdAt,value
2023-03-17T00:00:15.239Z,95298.38
2023-03-17T00:02:43.638Z,95298.88
2023-03-17T00:05:17.539Z,95299.34
2023-03-17T00:07:45.315Z,95265.56
2023-03-17T00:10:19.127Z,95293.00
2023-03-17T00:12:46.121Z,95307.75
2023-03-17T00:15:13.939Z,95304.38
2023-03-17T00:17:41.110Z,95310.91
2023-03-17T00:20:11.745Z,95306.72
2023-03-17T00:22:38.571Z,95303.44
2023-03-17T00:25:16.815Z,95311.00
2023-03-17T00:27:43.917Z,95307.06
2023-03-17T00:30:11.390Z,95305.19
2023-03-17T00:32:38.505Z,95302.56
2023-03-17T00:35:14.833Z,95296.91
2023-03-17T00:37:41.977Z,95300.66
2023-03-17T00:40:19.101Z,95303.53
2023-03-17T00:42:46.307Z,95297.38
2023-03-17T00:45:14.513Z,95301.72
2023-03-17T00:47:41.562Z,95301.09
2023-03-17T00:50:13.077Z,95304.91
2023-03-17T00:52:40.729Z,95308.34
2023-03-17T00:55:09.389Z,95306.16
2023-03-17T00:57:37.488Z,95306.41
2023-03-17T01:00:05.118Z,95308.22
2023-03-17T01:02:32.293Z,95313.22
2023-03-17T01:05:06.409Z,95311.91
2023-03-17T01:07:34.000Z,95310.66
2023-03-17T01:10:01.276Z,95314.16
2023-03-17T01:12:28.029Z,95307.91
2023-03-17T01:14:54.808Z,95312.25
2023-03-17T01:17:22.115Z,95317.38
2023-03-17T01:19:49.259Z,95317.34
2023-03-17T01:22:15.880Z,95315.31
2023-03-17T01:24:42.541Z,95321.88
2023-03-17T01:27:09.461Z,95318.53
2023-03-17T01:29:36.924Z,95319.19
2023-03-17T01:32:04.036Z,95320.06
2023-03-17T01:34:30.714Z,95325.63
2023-03-17T01:36:57.389Z,95320.06
2023-03-17T01:39:24.049Z,95314.03
2023-03-17T01:41:56.812Z,95312.75
2023-03-17T01:44:23.929Z,95316.22
2023-03-17T01:46:50.468Z,95321.63
2023-03-17T01:49:17.194Z,95318.25
2023-03-17T01:52:01.067Z,95319.78
2023-03-17T01:54:35.011Z,95318.59
2023-03-17T01:57:23.319Z,95319.22
2023-03-17T01:59:52.722Z,95323.75
2023-03-17T02:02:22.678Z,95323.66
2023-03-17T02:04:52.154Z,95335.38
2023-03-17T02:07:20.502Z,95332.38
2023-03-17T02:09:47.817Z,95333.31
2023-03-17T02:12:15.387Z,95337.84
2023-03-17T02:14:42.009Z,95338.88
2023-03-17T02:17:08.702Z,95334.59
2023-03-17T02:19:35.689Z,95341.34
2023-03-17T02:22:02.667Z,95336.44
2023-03-17T02:24:34.839Z,95340.44
2023-03-17T02:27:05.753Z,95347.09
2023-03-17T02:29:34.155Z,95339.81
2023-03-17T02:32:01.043Z,95341.88
2023-03-17T02:34:29.912Z,95344.06
2023-03-17T02:36:57.230Z,95353.75
2023-03-17T02:39:24.163Z,95353.09
2023-03-17T02:41:51.151Z,95351.22
2023-03-17T02:44:17.852Z,95356.38
2023-03-17T02:46:44.722Z,95364.31
2023-03-17T02:49:12.046Z,95366.69
2023-03-17T02:51:38.892Z,95365.28
2023-03-17T02:54:05.808Z,95362.50
2023-03-17T02:56:32.817Z,95365.16
2023-03-17T02:58:59.482Z,95365.72
2023-03-17T03:01:26.918Z,95363.44
2023-03-17T03:03:53.643Z,95370.22
2023-03-17T03:06:20.355Z,95361.41
2023-03-17T03:08:47.098Z,95374.56
2023-03-17T03:11:14.171Z,95379.19
2023-03-17T03:13:40.892Z,95377.75
2023-03-17T03:16:08.300Z,95374.41
2023-03-17T03:18:35.369Z,95378.66
2023-03-17T03:21:01.964Z,95383.38
2023-03-17T03:23:28.560Z,95396.38
2023-03-17T03:25:55.805Z,95391.19
2023-03-17T03:28:22.676Z,95393.34
2023-03-17T03:30:49.465Z,95399.13
2023-03-17T03:33:16.917Z,95389.59
2023-03-17T03:35:44.454Z,95395.97
2023-03-17T03:38:11.709Z,95401.38
2023-03-17T03:40:38.893Z,95395.63
2023-03-17T03:43:16.341Z,95395.09
2023-03-17T03:45:46.612Z,95399.28
2023-03-17T03:48:13.536Z,95398.75
2023-03-17T03:50:40.447Z,95399.09
2023-03-17T03:53:07.331Z,95397.34
2023-03-17T03:55:34.177Z,95401.75
2023-03-17T03:58:00.778Z,95400.03
2023-03-17T04:00:27.501Z,95410.69
2023-03-17T04:02:55.355Z,95400.88
2023-03-17T04:05:22.250Z,95407.31
2023-03-17T04:07:48.933Z,95410.88
2023-03-17T04:10:16.061Z,95413.63
2023-03-17T04:12:43.114Z,95424.59
2023-03-17T04:15:11.347Z,95420.59
2023-03-17T04:17:38.194Z,95427.22
2023-03-17T04:20:05.355Z,95422.63
2023-03-17T04:22:31.947Z,95426.59
2023-03-17T04:24:58.595Z,95432.75
2023-03-17T04:27:25.515Z,95438.03
2023-03-17T04:29:52.715Z,95432.09
2023-03-17T04:32:19.423Z,95432.22
2023-03-17T04:34:46.107Z,95434.38
2023-03-17T04:37:12.907Z,95432.88
2023-03-17T04:39:39.709Z,95433.53
2023-03-17T04:42:07.654Z,95435.34
2023-03-17T04:44:34.376Z,95438.03
2023-03-17T04:47:01.046Z,95449.16
2023-03-17T04:49:28.097Z,95442.09
2023-03-17T04:51:54.802Z,95441.09
2023-03-17T04:54:21.801Z,95456.13
2023-03-17T04:56:48.542Z,95447.78
2023-03-17T04:59:16.235Z,95453.84
2023-03-17T05:01:44.016Z,95459.09
2023-03-17T05:04:12.797Z,95455.38
2023-03-17T05:06:43.521Z,95459.03
2023-03-17T05:09:10.164Z,95457.22
2023-03-17T05:11:37.136Z,95468.72
2023-03-17T05:14:03.672Z,95473.19
2023-03-17T05:16:30.908Z,95470.09
2023-03-17T05:18:57.588Z,95467.75
2023-03-17T05:21:24.229Z,95477.09
2023-03-17T05:23:51.581Z,95486.31
2023-03-17T05:26:19.595Z,95489.38
2023-03-17T05:28:48.458Z,95492.03
2023-03-17T05:31:15.148Z,95493.19
2023-03-17T05:33:41.837Z,95495.34
2023-03-17T05:36:08.718Z,95493.53
2023-03-17T05:38:36.010Z,95498.09
2023-03-17T05:41:04.230Z,95499.25
2023-03-17T05:43:31.244Z,95489.47
2023-03-17T05:45:57.916Z,95497.81
2023-03-17T05:48:24.669Z,95494.03
2023-03-17T05:50:51.281Z,95506.66
2023-03-17T05:53:18.713Z,95505.66
2023-03-17T05:55:45.436Z,95512.66
2023-03-17T05:58:12.926Z,95506.53
2023-03-17T06:00:39.582Z,95518.47
2023-03-17T06:03:06.630Z,95516.81
2023-03-17T06:05:33.768Z,95517.47
2023-03-17T06:08:00.726Z,95526.75
2023-03-17T06:10:27.780Z,95539.53
2023-03-17T06:12:54.565Z,95543.22
2023-03-17T06:15:21.205Z,95549.91
2023-03-17T06:17:47.854Z,95541.72
2023-03-17T06:20:14.813Z,95543.75
2023-03-17T06:23:00.468Z,95553.66
2023-03-17T06:25:29.944Z,95565.03
2023-03-17T06:27:57.699Z,95551.47
2023-03-17T06:30:25.303Z,95556.72
2023-03-17T06:32:51.993Z,95548.66
2023-03-17T06:35:18.920Z,95552.63
2023-03-17T06:37:45.532Z,95560.19
2023-03-17T06:40:12.573Z,95552.34
2023-03-17T06:42:39.447Z,95561.72
2023-03-17T06:45:06.668Z,95565.72
2023-03-17T06:47:34.152Z,95566.25
2023-03-17T06:50:00.855Z,95561.22
2023-03-17T06:52:27.841Z,95568.66
2023-03-17T06:54:54.426Z,95561.00
2023-03-17T06:57:21.152Z,95565.13
2023-03-17T06:59:47.980Z,95566.25
2023-03-17T07:02:15.288Z,95567.56
2023-03-17T07:04:42.279Z,95573.94
2023-03-17T07:07:09.458Z,95573.59
2023-03-17T07:09:36.405Z,95573.53
2023-03-17T07:12:06.100Z,95575.22
2023-03-17T07:14:34.372Z,95582.28
2023-03-17T07:17:01.981Z,95583.25
2023-03-17T07:19:29.276Z,95580.88
2023-03-17T07:21:56.490Z,95575.44
2023-03-17T07:24:23.746Z,95576.31
2023-03-17T07:26:50.378Z,95577.00
2023-03-17T07:29:17.530Z,95575.75
2023-03-17T07:31:44.864Z,95588.81
2023-03-17T07:34:12.768Z,95580.13
2023-03-17T07:36:39.979Z,95576.41
2023-03-17T07:39:06.925Z,95582.06
2023-03-17T07:41:33.662Z,95583.94
2023-03-17T07:44:00.798Z,95590.66
2023-03-17T07:46:27.772Z,95595.09
2023-03-17T07:48:54.657Z,95595.66
2023-03-17T07:51:23.250Z,95592.28
2023-03-17T07:53:53.117Z,95593.97
2023-03-17T07:56:19.686Z,95597.66
2023-03-17T07:58:46.384Z,95593.00
2023-03-17T08:01:13.150Z,95594.84
2023-03-17T08:03:41.479Z,95593.38
2023-03-17T08:06:08.712Z,95600.63
2023-03-17T08:08:36.024Z,95594.06
2023-03-17T08:11:03.808Z,95597.94
2023-03-17T08:13:33.396Z,95593.72
2023-03-17T08:16:00.713Z,95601.06
2023-03-17T08:18:27.592Z,95599.69
2023-03-17T08:20:54.187Z,95595.66
2023-03-17T08:23:21.594Z,95602.50
2023-03-17T08:25:48.833Z,95594.63
2023-03-17T08:28:16.546Z,95597.44
2023-03-17T08:30:44.826Z,95591.63
2023-03-17T08:33:11.540Z,95595.91
2023-03-17T08:35:40.585Z,95597.69
2023-03-17T08:38:07.857Z,95591.72
2023-03-17T08:40:34.957Z,95593.84
2023-03-17T08:43:01.915Z,95592.91
2023-03-17T08:45:28.975Z,95595.91
2023-03-17T08:47:55.944Z,95590.34
2023-03-17T08:50:23.682Z,95605.53
2023-03-17T08:52:51.520Z,95594.81
2023-03-17T08:55:18.876Z,95596.88
2023-03-17T08:57:45.858Z,95590.91
2023-03-17T09:00:16.282Z,95594.25
2023-03-17T09:02:43.679Z,95591.94
2023-03-17T09:05:12.819Z,95596.88
2023-03-17T09:07:40.161Z,95587.44
2023-03-17T09:10:08.167Z,95600.28
2023-03-17T09:12:35.105Z,95594.69
2023-03-17T09:15:01.929Z,95606.63
2023-03-17T09:17:28.706Z,95598.31
2023-03-17T09:19:56.290Z,95590.00
2023-03-17T09:22:23.232Z,95596.50
2023-03-17T09:24:49.830Z,95598.22
2023-03-17T09:27:16.781Z,95592.75
2023-03-17T09:29:43.384Z,95593.06
2023-03-17T09:32:10.399Z,95594.00
2023-03-17T09:34:37.405Z,95594.41
2023-03-17T09:37:03.922Z,95598.13
2023-03-17T09:39:30.748Z,95606.56
2023-03-17T09:42:12.603Z,95600.53
2023-03-17T09:44:39.233Z,95599.09
2023-03-17T09:47:10.549Z,95605.63
2023-03-17T09:49:39.840Z,95595.19
2023-03-17T09:52:11.902Z,95601.72
2023-03-17T09:54:39.013Z,95606.69
2023-03-17T09:57:18.026Z,95601.78
2023-03-17T09:59:47.390Z,95605.31
2023-03-17T10:02:30.766Z,95605.13
2023-03-17T10:04:58.099Z,95611.44
2023-03-17T10:07:37.706Z,95603.00
2023-03-17T10:10:05.715Z,95604.16
2023-03-17T10:12:41.751Z,95600.56
2023-03-17T10:15:19.847Z,95601.53
2023-03-17T10:17:47.664Z,95608.91
2023-03-17T10:20:28.639Z,95604.16
2023-03-17T10:22:58.206Z,95603.41
2023-03-17T10:25:29.275Z,95602.66
2023-03-17T10:28:02.281Z,95597.28
2023-03-17T10:30:31.155Z,95595.13
2023-03-17T10:32:59.704Z,95591.56
2023-03-17T10:35:27.916Z,95595.13
2023-03-17T10:38:07.891Z,95590.88
2023-03-17T10:40:41.644Z,95589.09
2023-03-17T10:43:16.537Z,95587.22
2023-03-17T10:45:47.862Z,95583.22
2023-03-17T10:48:18.647Z,95587.56
2023-03-17T10:50:48.587Z,95591.97
2023-03-17T10:53:28.412Z,95586.81
2023-03-17T10:55:59.616Z,95574.75
2023-03-17T10:58:37.489Z,95572.72
2023-03-17T11:01:27.120Z,95570.78
2023-03-17T11:03:53.974Z,95566.25
2023-03-17T11:06:26.449Z,95559.41
2023-03-17T11:08:54.835Z,95551.50
2023-03-17T11:11:23.381Z,95547.91
2023-03-17T11:13:49.975Z,95542.38
2023-03-17T11:16:16.556Z,95551.13
2023-03-17T11:18:43.345Z,95550.94
2023-03-17T11:21:11.111Z,95552.72
2023-03-17T11:23:51.292Z,95554.88
2023-03-17T11:26:27.708Z,95545.22
2023-03-17T11:29:05.831Z,95548.09
2023-03-17T11:31:35.268Z,95548.09
2023-03-17T11:34:09.385Z,95545.53
2023-03-17T11:36:44.740Z,95532.13
2023-03-17T11:39:24.162Z,95533.50
2023-03-17T11:42:06.910Z,95528.66
2023-03-17T11:44:47.474Z,95528.69
2023-03-17T11:47:39.322Z,95538.53
2023-03-17T11:50:23.297Z,95537.91
2023-03-17T11:52:50.031Z,95533.84
2023-03-17T11:55:17.614Z,95528.91
2023-03-17T11:57:44.289Z,95521.50
2023-03-17T12:00:18.693Z,95517.25
2023-03-17T12:02:58.095Z,95513.56
2023-03-17T12:05:28.752Z,95515.41
2023-03-17T12:07:55.409Z,95511.41
2023-03-17T12:10:22.820Z,95517.81
2023-03-17T12:12:58.978Z,95517.28
2023-03-17T12:15:36.468Z,95514.59
2023-03-17T12:18:12.077Z,95500.78
2023-03-17T12:20:41.568Z,95511.88
2023-03-17T12:23:31.802Z,95497.44
2023-03-17T12:26:07.834Z,95497.09
2023-03-17T12:28:38.833Z,95500.25
2023-03-17T12:31:12.605Z,95495.28
2023-03-17T12:33:50.142Z,95490.81
2023-03-17T12:36:17.859Z,95489.38
2023-03-17T12:39:05.403Z,95494.84
2023-03-17T12:41:41.091Z,95490.88
2023-03-17T12:44:17.981Z,95490.25
2023-03-17T12:46:47.730Z,95493.47
2023-03-17T12:49:32.989Z,95501.25
2023-03-17T12:52:06.786Z,95496.50
2023-03-17T12:54:35.850Z,95496.09
2023-03-17T12:57:05.561Z,95495.97
2023-03-17T12:59:34.079Z,95485.56
2023-03-17T13:02:15.682Z,95494.56
2023-03-17T13:04:52.090Z,95485.47
2023-03-17T13:07:26.861Z,95496.97
2023-03-17T13:09:53.672Z,95487.03
2023-03-17T13:12:39.027Z,95489.22
2023-03-17T13:15:23.531Z,95491.28
2023-03-17T13:17:50.094Z,95494.06
2023-03-17T13:20:20.185Z,95495.22
2023-03-17T13:23:02.201Z,95489.16
2023-03-17T13:25:34.933Z,95472.19
2023-03-17T13:28:04.349Z,95478.13
2023-03-17T13:30:36.856Z,95471.66
2023-03-17T13:33:15.163Z,95472.94
2023-03-17T13:35:51.001Z,95474.72
2023-03-17T13:38:17.671Z,95478.59
2023-03-17T13:40:53.373Z,95475.38
2023-03-17T13:43:49.196Z,95483.09
2023-03-17T13:46:25.586Z,95479.09
2023-03-17T13:48:56.880Z,95476.72
2023-03-17T13:51:32.031Z,95484.59
2023-03-17T13:54:19.344Z,95479.09
2023-03-17T13:56:48.775Z,95473.78
2023-03-17T13:59:15.561Z,95472.91
2023-03-17T14:01:48.325Z,95479.22
2023-03-17T14:04:40.942Z,95473.84
2023-03-17T14:07:13.581Z,95476.56
2023-03-17T14:09:42.186Z,95487.75
2023-03-17T14:12:17.592Z,95496.75
2023-03-17T14:14:53.186Z,95478.72
2023-03-17T14:17:23.502Z,95478.53
2023-03-17T14:19:59.886Z,95476.56
2023-03-17T14:22:26.720Z,95486.41
2023-03-17T14:24:54.788Z,95483.44
2023-03-17T14:27:22.541Z,95488.91
2023-03-17T14:29:49.245Z,95494.94
2023-03-17T14:32:17.686Z,95481.03
2023-03-17T14:34:52.957Z,95494.00
2023-03-17T14:37:19.978Z,95496.94
2023-03-17T14:39:54.720Z,95486.84
2023-03-17T14:42:31.427Z,95503.25
2023-03-17T14:45:02.435Z,95498.13
2023-03-17T14:47:31.113Z,95499.09
2023-03-17T14:49:57.661Z,95502.81
2023-03-17T14:52:27.327Z,95499.22
2023-03-17T14:54:55.121Z,95499.50
2023-03-17T14:57:23.704Z,95499.84
2023-03-17T14:59:58.393Z,95500.41
2023-03-17T15:02:28.496Z,95500.25
2023-03-17T15:05:17.838Z,95490.75
2023-03-17T15:07:44.518Z,95502.31
2023-03-17T15:10:18.373Z,95502.81
2023-03-17T15:12:48.764Z,95513.50
2023-03-17T15:15:21.719Z,95518.31
2023-03-17T15:17:51.161Z,95521.00
2023-03-17T15:20:19.867Z,95534.16
2023-03-17T15:22:56.557Z,95533.66
2023-03-17T15:25:29.152Z,95526.53
2023-03-17T15:27:56.029Z,95536.72
2023-03-17T15:30:22.850Z,95535.13
2023-03-17T15:32:57.607Z,95535.63
2023-03-17T15:35:24.205Z,95540.19
2023-03-17T15:37:50.992Z,95546.72
2023-03-17T15:40:18.193Z,95541.91
2023-03-17T15:42:45.729Z,95544.31
2023-03-17T15:45:16.351Z,95536.94
2023-03-17T15:47:44.045Z,95549.31
2023-03-17T15:50:16.125Z,95546.75
2023-03-17T15:52:42.984Z,95545.72
2023-03-17T15:55:15.206Z,95544.94
2023-03-17T15:57:46.153Z,95552.88
2023-03-17T16:00:19.049Z,95543.53
2023-03-17T16:02:46.888Z,95550.06
2023-03-17T16:05:21.492Z,95555.53
2023-03-17T16:07:48.380Z,95550.72
2023-03-17T16:10:25.400Z,95558.16
2023-03-17T16:12:52.543Z,95556.06
2023-03-17T16:15:24.964Z,95554.34
2023-03-17T16:17:53.685Z,95555.31
2023-03-17T16:20:24.996Z,95565.44
2023-03-17T16:22:57.054Z,95560.53
2023-03-17T16:25:30.930Z,95556.50
2023-03-17T16:27:58.639Z,95558.25
2023-03-17T16:30:33.044Z,95559.78
2023-03-17T16:33:02.328Z,95562.22
2023-03-17T16:35:29.564Z,95559.28
2023-03-17T16:37:56.275Z,95562.69
2023-03-17T16:40:24.750Z,95568.34
2023-03-17T16:42:51.943Z,95571.31
2023-03-17T16:45:22.089Z,95571.50
2023-03-17T16:47:49.473Z,95580.38
2023-03-17T16:50:17.583Z,95575.16
2023-03-17T16:52:44.644Z,95578.09
2023-03-17T16:55:11.991Z,95569.38
2023-03-17T16:57:38.974Z,95567.78
2023-03-17T17:00:06.208Z,95568.78
2023-03-17T17:02:32.834Z,95569.53
2023-03-17T17:05:01.925Z,95573.28
2023-03-17T17:07:29.805Z,95568.03
2023-03-17T17:09:56.552Z,95573.22
2023-03-17T17:12:23.168Z,95559.25
2023-03-17T17:14:49.907Z,95573.66
2023-03-17T17:17:16.549Z,95568.97
2023-03-17T17:19:43.312Z,95577.72
2023-03-17T17:22:11.244Z,95575.09
2023-03-17T17:24:38.000Z,95574.63
2023-03-17T17:27:04.695Z,95584.94
2023-03-17T17:29:32.490Z,95581.81
2023-03-17T17:32:01.287Z,95581.47
2023-03-17T17:34:28.028Z,95587.41
2023-03-17T17:36:54.719Z,95593.84
2023-03-17T17:39:21.498Z,95591.69
2023-03-17T17:41:48.592Z,95591.94
2023-03-17T17:44:15.443Z,95594.53
2023-03-17T17:46:42.463Z,95596.63
2023-03-17T17:49:10.737Z,95597.78
2023-03-17T17:51:37.688Z,95598.31
2023-03-17T17:54:04.312Z,95591.94
2023-03-17T17:56:36.587Z,95604.19
2023-03-17T17:59:03.345Z,95607.19
2023-03-17T18:01:33.380Z,95602.16
2023-03-17T18:04:00.205Z,95603.25
2023-03-17T18:06:26.935Z,95600.56
2023-03-17T18:08:55.183Z,95593.16
2023-03-17T18:11:21.969Z,95601.19
2023-03-17T18:13:48.649Z,95596.84
2023-03-17T18:16:16.302Z,95602.19
2023-03-17T18:18:45.685Z,95598.97
2023-03-17T18:21:13.504Z,95592.66
2023-03-17T18:23:47.138Z,95605.63
2023-03-17T18:26:15.159Z,95596.41
2023-03-17T18:28:42.417Z,95597.66
2023-03-17T18:31:12.052Z,95600.66
2023-03-17T18:33:39.870Z,95602.88
2023-03-17T18:36:07.102Z,95592.13
2023-03-17T18:38:34.230Z,95605.19
2023-03-17T18:41:02.455Z,95603.63
2023-03-17T18:43:29.258Z,95597.19
2023-03-17T18:45:56.087Z,95603.88
2023-03-17T18:48:22.708Z,95609.88
2023-03-17T18:50:49.616Z,95610.19
2023-03-17T18:53:17.033Z,95605.69
2023-03-17T18:55:43.895Z,95612.09
2023-03-17T18:58:10.642Z,95623.41
2023-03-17T19:00:37.346Z,95623.66
2023-03-17T19:03:04.172Z,95613.72
2023-03-17T19:05:31.237Z,95616.25
2023-03-17T19:07:58.134Z,95616.97
2023-03-17T19:10:24.749Z,95616.09
2023-03-17T19:12:52.352Z,95616.47
2023-03-17T19:15:19.682Z,95615.19
2023-03-17T19:17:47.169Z,95617.00
2023-03-17T19:20:13.997Z,95617.19
2023-03-17T19:22:41.659Z,95609.06
2023-03-17T19:25:09.194Z,95613.91
2023-03-17T19:27:36.143Z,95613.06
2023-03-17T19:30:02.889Z,95612.81
2023-03-17T19:32:29.881Z,95612.03
2023-03-17T19:34:56.607Z,95608.69
2023-03-17T19:37:23.240Z,95609.63
2023-03-17T19:39:49.939Z,95597.81
2023-03-17T19:42:17.438Z,95589.13
2023-03-17T19:44:44.422Z,95600.00
2023-03-17T19:47:11.404Z,95602.13
2023-03-17T19:49:38.299Z,95606.03
2023-03-17T19:52:06.397Z,95601.56
2023-03-17T19:54:33.859Z,95598.59
2023-03-17T19:57:00.586Z,95595.69
2023-03-17T19:59:27.393Z,95595.19
2023-03-17T20:01:54.286Z,95598.66
2023-03-17T20:04:23.058Z,95586.03
2023-03-17T20:06:55.407Z,95584.91
2023-03-17T20:09:25.453Z,95590.56
2023-03-17T20:11:53.323Z,95585.94
2023-03-17T20:14:20.887Z,95587.06
2023-03-17T20:16:48.383Z,95579.28
2023-03-17T20:19:16.255Z,95580.91
2023-03-17T20:21:44.316Z,95583.88
2023-03-17T20:24:12.783Z,95557.88
2023-03-17T20:26:40.927Z,95572.47
2023-03-17T20:29:08.576Z,95581.66
2023-03-17T20:31:35.590Z,95581.06
2023-03-17T20:34:02.327Z,95581.19
2023-03-17T20:36:28.995Z,95579.97
2023-03-17T20:38:56.938Z,95578.91
2023-03-17T20:41:23.988Z,95572.00
2023-03-17T20:43:52.196Z,95579.66
2023-03-17T20:46:20.265Z,95575.09
2023-03-17T20:48:48.262Z,95577.47
2023-03-17T20:51:16.938Z,95574.69
2023-03-17T20:53:44.722Z,95577.69
2023-03-17T20:56:15.664Z,95585.31
2023-03-17T20:58:45.679Z,95588.81
2023-03-17T21:01:12.977Z,95582.59
2023-03-17T21:03:40.238Z,95584.06
2023-03-17T21:06:07.441Z,95582.50
2023-03-17T21:08:34.142Z,95579.19
2023-03-17T21:11:01.284Z,95584.97
2023-03-17T21:13:28.424Z,95585.66
2023-03-17T21:15:55.821Z,95582.13
2023-03-17T21:18:23.423Z,95572.03
2023-03-17T21:20:50.771Z,95578.25
2023-03-17T21:23:17.379Z,95580.31
2023-03-17T21:25:44.268Z,95571.13
2023-03-17T21:28:11.443Z,95572.50
2023-03-17T21:30:38.097Z,95573.19
2023-03-17T21:33:04.806Z,95568.41
2023-03-17T21:35:34.592Z,95571.69
2023-03-17T21:38:02.040Z,95566.28
2023-03-17T21:40:31.311Z,95567.63
2023-03-17T21:42:58.459Z,95564.09
2023-03-17T21:45:25.136Z,95573.78
2023-03-17T21:47:51.950Z,95580.09
2023-03-17T21:50:21.866Z,95573.31
2023-03-17T21:52:48.891Z,95580.00
2023-03-17T21:55:15.902Z,95569.19
2023-03-17T21:57:43.071Z,95567.72
2023-03-17T22:00:11.736Z,95563.63
2023-03-17T22:02:41.906Z,95566.88
2023-03-17T22:05:10.450Z,95566.38
2023-03-17T22:07:38.564Z,95569.00
2023-03-17T22:10:07.407Z,95578.38
2023-03-17T22:12:35.273Z,95573.03
2023-03-17T22:15:03.815Z,95580.53
2023-03-17T22:17:32.705Z,95576.53
2023-03-17T22:19:59.555Z,95580.44
2023-03-17T22:22:26.390Z,95564.03
2023-03-17T22:24:53.277Z,95556.63
2023-03-17T22:27:20.066Z,95560.97
2023-03-17T22:29:47.549Z,95554.41
2023-03-17T22:32:14.428Z,95559.81
2023-03-17T22:34:41.425Z,95556.34
2023-03-17T22:37:08.495Z,95564.66
2023-03-17T22:39:35.513Z,95567.41
2023-03-17T22:42:02.535Z,95554.88
2023-03-17T22:44:29.510Z,95557.41
2023-03-17T22:46:56.502Z,95556.91
2023-03-17T22:49:24.229Z,95565.34
2023-03-17T22:51:51.002Z,95562.28
2023-03-17T22:54:18.749Z,95550.06
2023-03-17T22:56:45.763Z,95554.28
2023-03-17T22:59:12.676Z,95552.03
2023-03-17T23:01:39.670Z,95525.38
2023-03-17T23:04:07.056Z,95539.13
2023-03-17T23:06:35.246Z,95541.31
2023-03-17T23:09:02.777Z,95549.81
2023-03-17T23:11:29.746Z,95549.66
2023-03-17T23:13:56.528Z,95545.31
2023-03-17T23:16:23.950Z,95539.38
2023-03-17T23:18:51.027Z,95536.91
2023-03-17T23:21:32.496Z,95553.00
2023-03-17T23:24:00.731Z,95543.78
2023-03-17T23:26:28.321Z,95544.78
2023-03-17T23:28:55.192Z,95550.00
2023-03-17T23:31:22.764Z,95552.38
2023-03-17T23:33:50.557Z,95551.94
2023-03-17T23:36:17.876Z,95551.50
2023-03-17T23:38:45.951Z,95539.47
2023-03-17T23:41:14.494Z,95551.94
2023-03-17T23:43:41.962Z,95540.19
2023-03-17T23:46:08.810Z,95549.16
2023-03-17T23:48:36.010Z,95540.03
2023-03-17T23:51:03.366Z,95540.28
2023-03-17T23:53:31.578Z,95525.94
2023-03-17T23:55:59.728Z,95541.06
2023-03-17T23:58:27.528Z,95536.56
